createdAt,value
2023-04-22T00:00:30.026Z,89.15
2023-04-22T00:01:30.564Z,89.21
2023-04-22T00:02:30.537Z,88.90
2023-04-22T00:03:30.693Z,89.15
2023-04-22T00:04:30.720Z,89.25
2023-04-22T00:05:30.729Z,89.36
2023-04-22T00:06:31.230Z,89.56
2023-04-22T00:07:31.724Z,89.31
2023-04-22T00:08:32.228Z,89.31
2023-04-22T00:09:32.712Z,89.00
2023-04-22T00:10:33.225Z,88.90
2023-04-22T00:11:33.706Z,89.11
2023-04-22T00:12:34.188Z,89.21
2023-04-22T00:13:34.664Z,89.06
2023-04-22T00:14:35.136Z,88.45
2023-04-22T00:15:35.615Z,88.24
2023-04-22T00:16:36.265Z,88.04
2023-04-22T00:17:36.333Z,88.00
2023-04-22T00:18:36.819Z,87.84
2023-04-22T00:19:37.582Z,88.24
2023-04-22T00:20:37.648Z,88.45
2023-04-22T00:21:38.117Z,88.14
2023-04-22T00:22:38.607Z,88.80
2023-04-22T00:23:39.064Z,88.65
2023-04-22T00:24:39.541Z,88.35
2023-04-22T00:25:39.977Z,88.24
2023-04-22T00:26:40.451Z,88.35
2023-04-22T00:27:40.908Z,88.04
2023-04-22T00:28:41.416Z,87.53
2023-04-22T00:29:41.889Z,87.63
2023-04-22T00:30:42.387Z,87.29
2023-04-22T00:31:43.301Z,86.98
2023-04-22T00:32:43.484Z,86.57
2023-04-22T00:33:43.432Z,86.22
2023-04-22T00:34:43.968Z,86.22
2023-04-22T00:35:44.501Z,85.91
2023-04-22T00:36:44.456Z,85.71
2023-04-22T00:37:44.985Z,85.50
2023-04-22T00:38:44.932Z,85.40
2023-04-22T00:39:45.447Z,85.61
2023-04-22T00:40:45.930Z,85.61
2023-04-22T00:41:46.448Z,85.30
2023-04-22T00:42:46.974Z,85.30
2023-04-22T00:43:47.456Z,85.30
2023-04-22T00:44:47.977Z,85.30
2023-04-22T00:45:48.504Z,85.20
2023-04-22T00:46:49.074Z,85.40
2023-04-22T00:47:49.238Z,85.50
2023-04-22T00:48:49.344Z,85.75
2023-04-22T00:49:49.855Z,86.20
2023-04-22T00:50:50.541Z,87.67
2023-04-22T00:51:50.683Z,87.92
2023-04-22T00:52:50.738Z,88.57
2023-04-22T00:53:50.548Z,89.39
2023-04-22T00:54:50.998Z,89.70
2023-04-22T00:55:51.478Z,89.25
2023-04-22T00:56:51.954Z,88.74
2023-04-22T00:57:52.501Z,88.80
2023-04-22T00:58:52.458Z,88.59
2023-04-22T00:59:52.405Z,87.88
2023-04-22T01:00:53.014Z,87.63
2023-04-22T01:01:53.031Z,87.53
2023-04-22T01:02:53.137Z,87.22
2023-04-22T01:03:53.395Z,87.22
2023-04-22T01:04:53.577Z,87.18
2023-04-22T01:05:53.534Z,86.91
2023-04-22T01:06:54.049Z,86.98
2023-04-22T01:07:54.564Z,86.77
2023-04-22T01:08:55.090Z,86.57
2023-04-22T01:09:55.610Z,86.46
2023-04-22T01:10:56.151Z,86.26
2023-04-22T01:11:56.704Z,85.96
2023-04-22T01:12:56.648Z,85.75
2023-04-22T01:13:57.195Z,85.71
2023-04-22T01:14:57.144Z,85.64
2023-04-22T01:15:57.678Z,85.75
2023-04-22T01:16:58.314Z,85.55
2023-04-22T01:17:58.420Z,85.34
2023-04-22T01:18:58.384Z,85.20
2023-04-22T01:19:58.907Z,85.10
2023-04-22T01:20:59.443Z,85.24
2023-04-22T01:21:59.976Z,85.24
2023-04-22T01:23:00.495Z,84.79
2023-04-22T01:24:01.021Z,84.48
2023-04-22T01:25:01.566Z,84.58
2023-04-22T01:26:01.513Z,84.38
2023-04-22T01:27:02.091Z,84.17
2023-04-22T01:28:02.086Z,83.97
2023-04-22T01:29:02.603Z,83.97
2023-04-22T01:30:03.128Z,84.17
2023-04-22T01:31:03.153Z,84.17
2023-04-22T01:32:03.742Z,84.07
2023-04-22T01:33:03.786Z,84.07
2023-04-22T01:34:03.781Z,84.48
2023-04-22T01:35:03.760Z,84.52
2023-04-22T01:36:03.720Z,84.63
2023-04-22T01:37:04.251Z,84.72
2023-04-22T01:38:04.788Z,84.58
2023-04-22T01:39:05.321Z,84.38
2023-04-22T01:40:05.859Z,84.38
2023-04-22T01:41:05.798Z,84.28
2023-04-22T01:42:06.331Z,84.38
2023-04-22T01:43:06.832Z,84.28
2023-04-22T01:44:07.330Z,84.42
2023-04-22T01:45:07.840Z,84.31
2023-04-22T01:46:08.349Z,84.63
2023-04-22T01:47:08.316Z,84.72
2023-04-22T01:48:08.852Z,84.83
2023-04-22T01:49:08.770Z,85.07
2023-04-22T01:50:09.306Z,85.38
2023-04-22T01:51:09.255Z,85.58
2023-04-22T01:52:09.790Z,85.58
2023-04-22T01:53:10.421Z,85.28
2023-04-22T01:54:10.406Z,85.14
2023-04-22T01:55:10.366Z,84.83
2023-04-22T01:56:10.915Z,84.93
2023-04-22T01:57:10.870Z,85.03
2023-04-22T01:58:11.376Z,85.24
2023-04-22T01:59:11.866Z,85.44
2023-04-22T02:00:12.360Z,85.75
2023-04-22T02:01:12.978Z,85.64
2023-04-22T02:02:12.978Z,85.99
2023-04-22T02:03:13.013Z,86.30
2023-04-22T02:04:13.013Z,86.40
2023-04-22T02:05:13.604Z,86.85
2023-04-22T02:06:13.581Z,86.96
2023-04-22T02:07:14.082Z,86.65
2023-04-22T02:08:14.587Z,86.51
2023-04-22T02:09:15.114Z,86.30
2023-04-22T02:10:15.588Z,85.69
2023-04-22T02:11:16.044Z,85.79
2023-04-22T02:12:16.513Z,86.10
2023-04-22T02:13:17.019Z,86.10
2023-04-22T02:14:17.571Z,86.04
2023-04-22T02:15:18.058Z,86.14
2023-04-22T02:16:18.630Z,86.34
2023-04-22T02:17:18.584Z,86.04
2023-04-22T02:18:19.113Z,86.04
2023-04-22T02:19:19.639Z,86.04
2023-04-22T02:20:20.212Z,85.99
2023-04-22T02:21:20.172Z,85.79
2023-04-22T02:22:20.162Z,85.38
2023-04-22T02:23:20.121Z,85.58
2023-04-22T02:24:20.658Z,85.79
2023-04-22T02:25:21.249Z,86.24
2023-04-22T02:26:21.189Z,86.96
2023-04-22T02:27:21.718Z,87.41
2023-04-22T02:28:22.261Z,87.92
2023-04-22T02:29:22.789Z,87.82
2023-04-22T02:30:23.307Z,87.76
2023-04-22T02:31:23.851Z,88.06
2023-04-22T02:32:23.824Z,87.82
2023-04-22T02:33:24.283Z,87.30
2023-04-22T02:34:24.753Z,86.99
2023-04-22T02:35:25.231Z,87.10
2023-04-22T02:36:25.690Z,87.76
2023-04-22T02:37:26.120Z,87.45
2023-04-22T02:38:26.538Z,87.65
2023-04-22T02:39:26.971Z,88.06
2023-04-22T02:40:27.454Z,88.17
2023-04-22T02:41:27.989Z,87.85
2023-04-22T02:42:28.481Z,88.17
2023-04-22T02:43:29.018Z,88.17
2023-04-22T02:44:29.496Z,88.06
2023-04-22T02:45:30.019Z,87.85
2023-04-22T02:46:30.565Z,88.17
2023-04-22T02:47:31.060Z,88.37
2023-04-22T02:48:31.489Z,88.72
2023-04-22T02:49:31.912Z,88.72
2023-04-22T02:50:32.342Z,89.13
2023-04-22T02:51:32.793Z,89.23
2023-04-22T02:52:33.239Z,89.13
2023-04-22T02:53:33.676Z,88.62
2023-04-22T02:54:34.098Z,88.31
2023-04-22T02:55:34.520Z,88.37
2023-04-22T02:56:34.929Z,88.06
2023-04-22T02:57:35.341Z,88.27
2023-04-22T02:58:35.799Z,88.27
2023-04-22T02:59:36.285Z,88.27
2023-04-22T03:00:36.252Z,88.02
2023-04-22T03:01:36.746Z,87.71
2023-04-22T03:02:37.395Z,87.34
2023-04-22T03:03:37.577Z,88.21
2023-04-22T03:04:37.764Z,88.45
2023-04-22T03:05:38.215Z,89.72
2023-04-22T03:06:38.699Z,90.80
2023-04-22T03:07:39.119Z,90.69
2023-04-22T03:08:39.547Z,90.94
2023-04-22T03:09:40.354Z,91.86
2023-04-22T03:10:40.363Z,91.97
2023-04-22T03:11:40.776Z,92.17
2023-04-22T03:12:41.229Z,92.58
2023-04-22T03:13:41.691Z,92.99
2023-04-22T03:14:42.105Z,93.04
2023-04-22T03:15:42.540Z,92.93
2023-04-22T03:16:42.959Z,92.93
2023-04-22T03:17:43.458Z,93.44
2023-04-22T03:18:43.923Z,92.69
2023-04-22T03:19:44.324Z,92.69
2023-04-22T03:20:44.842Z,91.97
2023-04-22T03:21:45.315Z,92.17
2023-04-22T03:22:45.762Z,91.93
2023-04-22T03:23:46.188Z,91.97
2023-04-22T03:24:46.629Z,92.27
2023-04-22T03:25:47.080Z,92.44
2023-04-22T03:26:47.530Z,92.08
2023-04-22T03:27:47.956Z,91.67
2023-04-22T03:28:48.382Z,91.22
2023-04-22T03:29:48.801Z,90.61
2023-04-22T03:30:49.243Z,90.50
2023-04-22T03:31:49.755Z,90.44
2023-04-22T03:32:49.784Z,90.95
2023-04-22T03:33:50.263Z,91.02
2023-04-22T03:34:50.735Z,90.71
2023-04-22T03:35:51.194Z,90.71
2023-04-22T03:36:51.638Z,90.30
2023-04-22T03:37:52.119Z,89.99
2023-04-22T03:38:52.602Z,90.20
2023-04-22T03:39:53.109Z,90.65
2023-04-22T03:40:53.588Z,91.06
2023-04-22T03:41:54.083Z,91.47
2023-04-22T03:42:54.605Z,91.61
2023-04-22T03:43:55.087Z,91.67
2023-04-22T03:44:55.604Z,91.27
2023-04-22T03:45:56.149Z,91.06
2023-04-22T03:46:56.665Z,90.91
2023-04-22T03:47:56.956Z,90.61
2023-04-22T03:48:56.903Z,90.30
2023-04-22T03:49:57.432Z,90.40
2023-04-22T03:50:57.898Z,90.71
2023-04-22T03:51:58.366Z,90.55
2023-04-22T03:52:58.811Z,90.09
2023-04-22T03:53:59.227Z,89.95
2023-04-22T03:54:59.661Z,89.54
2023-04-22T03:56:00.157Z,89.43
2023-04-22T03:57:00.604Z,89.33
2023-04-22T03:58:01.049Z,89.48
2023-04-22T03:59:01.488Z,90.30
2023-04-22T04:00:01.923Z,90.20
2023-04-22T04:01:02.381Z,90.14
2023-04-22T04:02:02.989Z,90.75
2023-04-22T04:03:03.267Z,90.85
2023-04-22T04:04:03.695Z,91.00
2023-04-22T04:05:04.118Z,91.51
2023-04-22T04:06:04.248Z,91.82
2023-04-22T04:07:04.115Z,91.72
2023-04-22T04:08:04.536Z,91.82
2023-04-22T04:09:04.944Z,91.72
2023-04-22T04:10:05.361Z,91.27
2023-04-22T04:11:05.766Z,90.85
2023-04-22T04:12:06.163Z,90.34
2023-04-22T04:13:06.570Z,89.93
2023-04-22T04:14:06.977Z,89.99
2023-04-22T04:15:07.376Z,89.69
2023-04-22T04:16:08.005Z,89.62
2023-04-22T04:17:07.856Z,90.34
2023-04-22T04:18:08.326Z,90.89
2023-04-22T04:19:08.861Z,91.25
2023-04-22T04:20:09.310Z,92.21
2023-04-22T04:21:09.736Z,92.93
2023-04-22T04:22:10.179Z,92.73
2023-04-22T04:23:10.602Z,92.42
2023-04-22T04:24:11.052Z,92.17
2023-04-22T04:25:11.463Z,91.60
2023-04-22T04:26:11.900Z,92.01
2023-04-22T04:27:12.330Z,92.77
2023-04-22T04:28:12.749Z,92.77
2023-04-22T04:29:13.175Z,93.33
2023-04-22T04:30:13.580Z,93.12
2023-04-22T04:31:14.048Z,93.08
2023-04-22T04:32:14.520Z,93.08
2023-04-22T04:33:14.919Z,92.87
2023-04-22T04:34:15.334Z,92.36
2023-04-22T04:35:15.777Z,92.73
2023-04-22T04:36:16.193Z,92.01
2023-04-22T04:37:16.612Z,91.70
2023-04-22T04:38:17.032Z,92.11
2023-04-22T04:39:17.456Z,91.70
2023-04-22T04:40:17.868Z,92.16
2023-04-22T04:41:18.314Z,93.33
2023-04-22T04:42:18.758Z,93.90
2023-04-22T04:43:19.200Z,93.65
2023-04-22T04:44:19.639Z,92.93
2023-04-22T04:45:20.079Z,92.83
2023-04-22T04:46:20.585Z,92.21
2023-04-22T04:47:21.074Z,92.32
2023-04-22T04:48:21.548Z,92.52
2023-04-22T04:49:21.977Z,92.73
2023-04-22T04:50:22.472Z,92.42
2023-04-22T04:51:22.893Z,92.52
2023-04-22T04:52:23.318Z,92.32
2023-04-22T04:53:23.763Z,92.21
2023-04-22T04:54:24.214Z,92.07
2023-04-22T04:55:24.648Z,91.41
2023-04-22T04:56:25.069Z,90.38
2023-04-22T04:57:25.507Z,90.08
2023-04-22T04:58:25.943Z,90.08
2023-04-22T04:59:26.362Z,90.38
2023-04-22T05:00:26.847Z,90.59
2023-04-22T05:01:27.341Z,90.03
2023-04-22T05:02:27.926Z,89.62
2023-04-22T05:03:27.996Z,89.42
2023-04-22T05:04:28.212Z,89.21
2023-04-22T05:05:28.173Z,89.11
2023-04-22T05:06:28.641Z,88.56
2023-04-22T05:07:29.095Z,88.24
2023-04-22T05:08:29.521Z,88.24
2023-04-22T05:09:29.929Z,88.24
2023-04-22T05:10:30.343Z,88.66
2023-04-22T05:11:30.790Z,88.45
2023-04-22T05:12:31.245Z,87.79
2023-04-22T05:13:31.699Z,87.18
2023-04-22T05:14:32.134Z,87.18
2023-04-22T05:15:32.565Z,87.38
2023-04-22T05:16:33.044Z,86.77
2023-04-22T05:17:33.530Z,86.66
2023-04-22T05:18:33.974Z,86.57
2023-04-22T05:19:34.404Z,86.81
2023-04-22T05:20:36.216Z,87.63
2023-04-22T05:21:35.071Z,87.53
2023-04-22T05:22:35.506Z,87.73
2023-04-22T05:23:35.932Z,87.53
2023-04-22T05:24:36.369Z,87.73
2023-04-22T05:25:36.809Z,88.90
2023-04-22T05:26:37.234Z,89.01
2023-04-22T05:27:37.666Z,89.46
2023-04-22T05:28:38.123Z,89.97
2023-04-22T05:29:38.896Z,90.59
2023-04-22T05:30:38.966Z,90.80
2023-04-22T05:31:39.459Z,90.80
2023-04-22T05:32:39.936Z,91.31
2023-04-22T05:33:40.362Z,90.80
2023-04-22T05:34:40.760Z,90.80
2023-04-22T05:35:41.167Z,90.44
2023-04-22T05:36:41.603Z,90.03
2023-04-22T05:37:42.026Z,90.14
2023-04-22T05:38:42.467Z,90.65
2023-04-22T05:39:42.896Z,90.14
2023-04-22T05:40:43.323Z,89.83
2023-04-22T05:41:46.161Z,89.72
2023-04-22T05:42:43.791Z,88.86
2023-04-22T05:43:44.224Z,88.66
2023-04-22T05:44:44.643Z,88.21
2023-04-22T05:45:45.080Z,87.90
2023-04-22T05:46:45.534Z,87.70
2023-04-22T05:47:45.970Z,87.79
2023-04-22T05:48:46.442Z,87.59
2023-04-22T05:49:46.854Z,87.14
2023-04-22T05:50:47.280Z,87.14
2023-04-22T05:51:47.712Z,86.42
2023-04-22T05:52:48.135Z,86.32
2023-04-22T05:53:48.556Z,86.42
2023-04-22T05:54:48.999Z,86.83
2023-04-22T05:55:49.397Z,87.28
2023-04-22T05:56:49.791Z,87.79
2023-04-22T05:57:50.206Z,87.34
2023-04-22T05:58:50.619Z,87.55
2023-04-22T05:59:51.065Z,86.63
2023-04-22T06:00:51.505Z,85.97
2023-04-22T06:01:51.945Z,85.97
2023-04-22T06:02:52.485Z,86.73
2023-04-22T06:03:52.764Z,86.93
2023-04-22T06:04:53.159Z,86.73
2023-04-22T06:05:54.425Z,86.93
2023-04-22T06:06:54.721Z,87.24
2023-04-22T06:07:54.941Z,87.90
2023-04-22T06:08:54.179Z,88.82
2023-04-22T06:10:03.690Z,89.27
2023-04-22T06:10:54.674Z,89.78
2023-04-22T06:11:55.071Z,89.54
2023-04-22T06:12:55.490Z,88.82
2023-04-22T06:13:55.906Z,88.41
2023-04-22T06:14:56.305Z,88.92
2023-04-22T06:15:56.728Z,89.43
2023-04-22T06:16:57.155Z,89.23
2023-04-22T06:17:57.614Z,89.13
2023-04-22T06:18:58.037Z,88.62
2023-04-22T06:19:58.467Z,88.51
2023-04-22T06:20:58.889Z,88.72
2023-04-22T06:21:59.313Z,88.88
2023-04-22T06:22:59.714Z,89.03
2023-04-22T06:24:00.111Z,89.64
2023-04-22T06:25:00.543Z,90.16
2023-04-22T06:26:00.970Z,90.01
2023-04-22T06:27:01.393Z,90.01
2023-04-22T06:28:01.790Z,90.56
2023-04-22T06:29:02.213Z,90.77
2023-04-22T06:30:02.657Z,90.97
2023-04-22T06:31:03.129Z,91.18
2023-04-22T06:32:03.581Z,91.14
2023-04-22T06:33:04.065Z,90.73
2023-04-22T06:34:04.533Z,90.17
2023-04-22T06:35:05.009Z,89.76
2023-04-22T06:36:05.498Z,88.80
2023-04-22T06:37:05.979Z,87.16
2023-04-22T06:38:06.449Z,86.40
2023-04-22T06:39:06.927Z,85.48
2023-04-22T06:40:07.399Z,85.55
2023-04-22T06:41:07.867Z,84.11
2023-04-22T06:42:08.335Z,83.50
2023-04-22T06:43:08.940Z,83.56
2023-04-22T06:44:08.961Z,83.05
2023-04-22T06:45:08.959Z,83.15
2023-04-22T06:46:08.889Z,82.81
2023-04-22T06:47:08.851Z,82.20
2023-04-22T06:48:09.359Z,82.29
2023-04-22T06:49:09.833Z,82.40
2023-04-22T06:50:10.292Z,82.05
2023-04-22T06:51:10.757Z,81.85
2023-04-22T06:52:11.224Z,81.20
2023-04-22T06:53:11.694Z,80.58
2023-04-22T06:54:12.150Z,80.44
2023-04-22T06:55:12.603Z,80.34
2023-04-22T06:56:13.079Z,81.20
2023-04-22T06:57:13.529Z,80.85
2023-04-22T06:58:13.980Z,80.24
2023-04-22T06:59:14.449Z,79.28
2023-04-22T07:00:14.902Z,78.88
2023-04-22T07:01:15.353Z,78.88
2023-04-22T07:02:15.838Z,79.18
2023-04-22T07:03:15.844Z,78.84
2023-04-22T07:04:15.792Z,78.02
2023-04-22T07:05:16.274Z,77.27
2023-04-22T07:06:16.724Z,77.17
2023-04-22T07:07:17.168Z,76.73
2023-04-22T07:08:17.628Z,75.92
2023-04-22T07:09:18.076Z,76.83
2023-04-22T07:10:18.544Z,76.83
2023-04-22T07:11:18.999Z,76.49
2023-04-22T07:12:19.450Z,76.08
2023-04-22T07:13:19.927Z,75.06
2023-04-22T07:14:20.369Z,75.27
2023-04-22T07:15:20.813Z,75.16
2023-04-22T07:16:21.325Z,75.13
2023-04-22T07:17:21.272Z,74.93
2023-04-22T07:18:21.143Z,74.93
2023-04-22T07:19:21.576Z,74.82
2023-04-22T07:20:22.026Z,75.13
2023-04-22T07:21:22.462Z,74.28
2023-04-22T07:22:22.895Z,74.69
2023-04-22T07:23:23.331Z,74.99
2023-04-22T07:24:23.759Z,75.33
2023-04-22T07:25:24.180Z,75.50
2023-04-22T07:26:24.617Z,75.40
2023-04-22T07:27:25.045Z,75.40
2023-04-22T07:28:25.480Z,75.30
2023-04-22T07:29:25.888Z,74.79
2023-04-22T07:30:26.308Z,74.38
2023-04-22T07:31:26.744Z,74.38
2023-04-22T07:32:27.188Z,75.09
2023-04-22T07:33:27.622Z,75.50
2023-04-22T07:34:28.041Z,74.58
2023-04-22T07:35:28.472Z,75.30
2023-04-22T07:36:28.896Z,75.06
2023-04-22T07:37:29.342Z,75.26
2023-04-22T07:38:29.780Z,75.53
2023-04-22T07:39:30.199Z,75.53
2023-04-22T07:40:30.621Z,74.41
2023-04-22T07:41:31.059Z,73.30
2023-04-22T07:42:31.505Z,72.04
2023-04-22T07:43:31.940Z,72.14
2023-04-22T07:44:32.398Z,72.52
2023-04-22T07:45:32.864Z,73.29
2023-04-22T07:46:33.285Z,72.58
2023-04-22T07:47:33.745Z,72.08
2023-04-22T07:48:34.173Z,70.45
2023-04-22T07:49:34.591Z,70.92
2023-04-22T07:50:35.917Z,70.42
2023-04-22T07:51:35.450Z,69.30
2023-04-22T07:52:35.872Z,69.00
2023-04-22T07:53:36.281Z,68.70
2023-04-22T07:54:36.694Z,67.88
2023-04-22T07:55:37.119Z,67.07
2023-04-22T07:56:37.540Z,67.34
2023-04-22T07:57:37.931Z,66.53
2023-04-22T07:58:38.339Z,66.91
2023-04-22T07:59:39.059Z,66.60
2023-04-22T08:00:39.109Z,66.09
2023-04-22T08:01:39.540Z,65.25
2023-04-22T08:02:40.083Z,64.85
2023-04-22T08:03:40.205Z,64.04
2023-04-22T08:04:40.260Z,62.29
2023-04-22T08:05:40.147Z,62.99
2023-04-22T08:06:40.532Z,62.49
2023-04-22T08:07:40.934Z,61.58
2023-04-22T08:08:41.349Z,62.49
2023-04-22T08:09:41.875Z,61.88
2023-04-22T08:10:41.817Z,60.77
2023-04-22T08:11:42.216Z,60.53
2023-04-22T08:12:42.608Z,61.44
2023-04-22T08:13:43.004Z,61.72
2023-04-22T08:14:43.413Z,61.01
2023-04-22T08:15:43.898Z,60.78
2023-04-22T08:16:43.762Z,59.27
2023-04-22T08:17:44.215Z,58.36
2023-04-22T08:18:44.060Z,58.36
2023-04-22T08:19:44.456Z,59.27
2023-04-22T08:20:44.854Z,59.14
2023-04-22T08:21:45.225Z,58.93
2023-04-22T08:22:45.706Z,58.23
2023-04-22T08:23:45.542Z,58.12
2023-04-22T08:24:45.961Z,58.23
2023-04-22T08:25:46.351Z,57.59
2023-04-22T08:26:46.725Z,56.88
2023-04-22T08:27:47.110Z,56.88
2023-04-22T08:28:47.486Z,56.18
2023-04-22T08:29:47.856Z,55.57
2023-04-22T08:30:48.225Z,56.98
2023-04-22T08:31:48.730Z,56.25
2023-04-22T08:32:48.707Z,54.31
2023-04-22T08:33:48.552Z,54.51
2023-04-22T08:34:51.868Z,55.52
2023-04-22T08:35:48.982Z,54.61
2023-04-22T08:36:49.366Z,54.13
2023-04-22T08:37:49.760Z,53.09
2023-04-22T08:38:50.275Z,53.30
2023-04-22T08:39:50.117Z,53.60
2023-04-22T08:40:50.527Z,54.48
2023-04-22T08:41:50.947Z,53.85
2023-04-22T08:42:51.333Z,52.54
2023-04-22T08:43:51.713Z,53.02
2023-04-22T08:44:52.106Z,52.72
2023-04-22T08:45:52.477Z,52.82
2023-04-22T08:46:52.862Z,52.22
2023-04-22T08:47:53.265Z,51.59
2023-04-22T08:48:53.651Z,53.50
2023-04-22T08:49:54.029Z,53.09
2023-04-22T08:50:54.405Z,52.26
2023-04-22T08:51:54.767Z,53.07
2023-04-22T08:52:55.140Z,51.08
2023-04-22T08:53:55.510Z,50.30
2023-04-22T08:54:55.875Z,52.89
2023-04-22T08:55:56.241Z,52.19
2023-04-22T08:56:56.647Z,53.38
2023-04-22T08:57:57.025Z,51.66
2023-04-22T08:58:57.381Z,50.83
2023-04-22T08:59:57.749Z,50.35
2023-04-22T09:00:58.124Z,49.95
2023-04-22T09:01:58.720Z,50.45
2023-04-22T09:02:58.846Z,50.56
2023-04-22T09:03:58.813Z,51.26
2023-04-22T09:04:58.642Z,51.26
2023-04-22T09:05:59.008Z,52.24
2023-04-22T09:06:59.394Z,52.04
2023-04-22T09:07:59.763Z,51.73
2023-04-22T09:09:00.128Z,51.97
2023-04-22T09:10:00.502Z,52.17
2023-04-22T09:11:00.859Z,52.26
2023-04-22T09:12:01.236Z,51.48
2023-04-22T09:13:01.593Z,51.86
2023-04-22T09:14:01.965Z,52.89
2023-04-22T09:15:02.306Z,51.28
2023-04-22T09:16:02.691Z,52.17
2023-04-22T09:17:03.069Z,51.23
2023-04-22T09:18:03.475Z,50.23
2023-04-22T09:19:03.280Z,49.80
2023-04-22T09:20:03.647Z,48.90
2023-04-22T09:21:04.031Z,48.69
2023-04-22T09:22:04.368Z,48.59
2023-04-22T09:23:04.731Z,49.50
2023-04-22T09:24:05.089Z,50.00
2023-04-22T09:25:05.453Z,48.49
2023-04-22T09:26:05.828Z,49.42
2023-04-22T09:27:06.188Z,48.03
2023-04-22T09:28:06.551Z,48.44
2023-04-22T09:29:06.924Z,49.55
2023-04-22T09:30:07.294Z,49.35
2023-04-22T09:31:07.683Z,49.44
2023-04-22T09:32:08.260Z,50.76
2023-04-22T09:33:08.259Z,51.06
2023-04-22T09:34:08.036Z,50.15
2023-04-22T09:35:08.402Z,48.94
2023-04-22T09:36:08.777Z,50.33
2023-04-22T09:37:09.147Z,49.60
2023-04-22T09:38:09.541Z,50.31
2023-04-22T09:39:09.919Z,48.29
2023-04-22T09:40:10.284Z,48.41
2023-04-22T09:41:10.704Z,49.12
2023-04-22T09:42:11.051Z,49.60
2023-04-22T09:43:11.425Z,49.18
2023-04-22T09:44:11.806Z,49.27
2023-04-22T09:45:12.198Z,49.45
2023-04-22T09:46:12.576Z,49.33
2023-04-22T09:47:12.431Z,47.09
2023-04-22T09:48:12.813Z,45.99
2023-04-22T09:49:13.178Z,47.62
2023-04-22T09:50:13.544Z,48.20
2023-04-22T09:51:13.899Z,49.08
2023-04-22T09:52:14.268Z,47.85
2023-04-22T09:53:14.626Z,46.77
2023-04-22T09:54:15.011Z,46.27
2023-04-22T09:55:15.360Z,47.15
2023-04-22T09:56:15.693Z,46.65
2023-04-22T09:57:16.040Z,45.75
2023-04-22T09:58:16.402Z,47.65
2023-04-22T09:59:16.763Z,46.85
2023-04-22T10:00:17.191Z,46.07
2023-04-22T10:01:17.055Z,46.67
2023-04-22T10:02:16.861Z,46.67
2023-04-22T10:03:17.283Z,47.47
2023-04-22T10:04:17.116Z,47.38
2023-04-22T10:05:17.451Z,45.77
2023-04-22T10:06:17.796Z,46.47
2023-04-22T10:07:18.150Z,46.25
2023-04-22T10:08:18.509Z,45.75
2023-04-22T10:09:18.853Z,46.85
2023-04-22T10:10:19.182Z,46.62
2023-04-22T10:11:19.540Z,47.63
2023-04-22T10:12:26.079Z,46.15
2023-04-22T10:13:19.940Z,46.15
2023-04-22T10:14:20.301Z,47.05
2023-04-22T10:15:20.632Z,46.65
2023-04-22T10:16:20.998Z,46.65
2023-04-22T10:17:20.839Z,45.75
2023-04-22T10:18:21.190Z,46.42
2023-04-22T10:19:21.554Z,46.23
2023-04-22T10:20:21.885Z,45.53
2023-04-22T10:21:22.211Z,45.70
2023-04-22T10:22:22.533Z,44.60
2023-04-22T10:23:22.865Z,45.26
2023-04-22T10:24:23.196Z,45.06
2023-04-22T10:25:23.514Z,43.55
2023-04-22T10:26:23.838Z,43.16
2023-04-22T10:27:24.178Z,43.35
2023-04-22T10:28:24.516Z,44.24
2023-04-22T10:29:24.868Z,44.12
2023-04-22T10:30:25.220Z,44.62
2023-04-22T10:31:25.610Z,43.90
2023-04-22T10:32:25.392Z,42.40
2023-04-22T10:33:25.759Z,41.30
2023-04-22T10:34:26.089Z,39.07
2023-04-22T10:35:26.433Z,37.99
2023-04-22T10:36:26.772Z,40.28
2023-04-22T10:37:27.120Z,40.58
2023-04-22T10:38:27.448Z,40.47
2023-04-22T10:39:27.787Z,39.58
2023-04-22T10:40:28.131Z,38.48
2023-04-22T10:41:28.473Z,37.48
2023-04-22T10:42:28.810Z,36.69
2023-04-22T10:43:29.118Z,40.47
2023-04-22T10:44:29.422Z,39.79
2023-04-22T10:45:29.748Z,39.37
2023-04-22T10:46:30.110Z,39.37
2023-04-22T10:47:29.922Z,39.15
2023-04-22T10:48:30.251Z,40.06
2023-04-22T10:49:30.572Z,40.58
2023-04-22T10:50:30.898Z,40.78
2023-04-22T10:51:31.238Z,41.80
2023-04-22T10:52:31.569Z,40.58
2023-04-22T10:53:31.915Z,39.84
2023-04-22T10:54:32.647Z,39.72
2023-04-22T10:55:32.480Z,39.60
2023-04-22T10:56:32.837Z,38.60
2023-04-22T10:57:33.194Z,38.20
2023-04-22T10:58:33.521Z,39.18
2023-04-22T10:59:33.827Z,39.46
2023-04-22T11:00:45.755Z,38.56
2023-04-22T11:01:34.163Z,38.27
2023-04-22T11:02:34.604Z,37.47
2023-04-22T11:03:34.648Z,36.77
2023-04-22T11:04:34.732Z,35.21
2023-04-22T11:05:34.504Z,35.21
2023-04-22T11:06:34.798Z,36.71
2023-04-22T11:07:35.105Z,36.11
2023-04-22T11:08:35.412Z,37.44
2023-04-22T11:09:35.711Z,37.56
2023-04-22T11:10:36.010Z,38.36
2023-04-22T11:11:36.333Z,39.14
2023-04-22T11:12:36.656Z,38.52
2023-04-22T11:13:36.956Z,39.80
2023-04-22T11:14:37.261Z,39.88
2023-04-22T11:15:37.558Z,38.07
2023-04-22T11:16:37.921Z,37.07
2023-04-22T11:17:37.667Z,38.89
2023-04-22T11:18:38.012Z,37.88
2023-04-22T11:19:38.659Z,38.59
2023-04-22T11:20:38.566Z,39.56
2023-04-22T11:21:38.851Z,38.86
2023-04-22T11:22:39.145Z,37.29
2023-04-22T11:23:39.451Z,38.78
2023-04-22T11:24:39.726Z,37.49
2023-04-22T11:25:40.004Z,37.40
2023-04-22T11:26:40.282Z,37.32
2023-04-22T11:27:40.571Z,39.20
2023-04-22T11:28:40.851Z,40.46
2023-04-22T11:29:41.240Z,39.16
2023-04-22T11:30:41.093Z,39.54
2023-04-22T11:31:41.409Z,38.15
2023-04-22T11:32:41.730Z,38.43
2023-04-22T11:33:42.065Z,38.11
2023-04-22T11:34:42.272Z,38.53
2023-04-22T11:35:42.005Z,37.83
2023-04-22T11:36:42.281Z,38.25
2023-04-22T11:37:42.558Z,38.53
2023-04-22T11:38:42.828Z,37.05
2023-04-22T11:39:59.678Z,37.35
2023-04-22T11:40:46.215Z,38.33
2023-04-22T11:41:43.368Z,38.63
2023-04-22T11:42:43.662Z,37.45
2023-04-22T11:43:43.960Z,38.05
2023-04-22T11:44:44.227Z,37.93
2023-04-22T11:45:44.521Z,37.53
2023-04-22T11:46:44.269Z,37.34
2023-04-22T11:47:44.523Z,36.34
2023-04-22T11:48:44.737Z,37.62
2023-04-22T11:49:44.961Z,37.21
2023-04-22T11:50:45.195Z,36.72
2023-04-22T11:51:45.409Z,36.93
2023-04-22T11:52:45.657Z,37.04
2023-04-22T11:53:45.298Z,36.54
2023-04-22T11:54:45.515Z,35.34
2023-04-22T11:55:45.728Z,35.86
2023-04-22T11:56:45.930Z,36.76
2023-04-22T11:57:46.145Z,36.35
2023-04-22T11:58:46.360Z,36.47
2023-04-22T11:59:46.585Z,36.37
2023-04-22T12:00:46.829Z,38.05
2023-04-22T12:01:47.262Z,36.44
2023-04-22T12:02:47.061Z,35.34
2023-04-22T12:03:46.952Z,36.32
2023-04-22T12:04:46.837Z,35.42
2023-04-22T12:05:46.546Z,35.36
2023-04-22T12:06:46.774Z,35.88
2023-04-22T12:07:47.008Z,35.79
2023-04-22T12:08:47.216Z,35.63
2023-04-22T12:09:47.422Z,37.01
2023-04-22T12:10:47.639Z,38.78
2023-04-22T12:11:47.863Z,37.88
2023-04-22T12:12:48.073Z,37.95
2023-04-22T12:13:48.283Z,35.42
2023-04-22T12:14:48.496Z,35.82
2023-04-22T12:15:48.696Z,34.41
2023-04-22T12:16:48.944Z,34.63
2023-04-22T12:17:48.635Z,33.95
2023-04-22T12:18:48.819Z,35.36
2023-04-22T12:19:49.045Z,33.70
2023-04-22T12:20:49.268Z,35.01
2023-04-22T12:21:49.476Z,35.01
2023-04-22T12:22:49.729Z,35.81
2023-04-22T12:23:49.972Z,35.31
2023-04-22T12:24:50.219Z,37.88
2023-04-22T12:25:50.448Z,37.70
2023-04-22T12:26:50.686Z,39.68
2023-04-22T12:27:50.930Z,38.98
2023-04-22T12:28:51.167Z,37.59
2023-04-22T12:29:52.394Z,36.49
2023-04-22T12:30:51.485Z,36.71
2023-04-22T12:31:51.751Z,36.49
2023-04-22T12:32:52.030Z,36.59
2023-04-22T12:33:52.312Z,36.80
2023-04-22T12:34:52.585Z,36.51
2023-04-22T12:35:52.859Z,37.40
2023-04-22T12:36:53.138Z,37.90
2023-04-22T12:37:53.418Z,38.20
2023-04-22T12:38:53.705Z,36.02
2023-04-22T12:39:53.987Z,36.93
2023-04-22T12:40:54.280Z,36.63
2023-04-22T12:41:54.579Z,36.61
2023-04-22T12:42:54.877Z,36.01
2023-04-22T12:43:55.183Z,37.10
2023-04-22T12:44:55.525Z,37.21
2023-04-22T12:45:55.820Z,35.81
2023-04-22T12:46:56.107Z,36.31
2023-04-22T12:47:56.502Z,37.70
2023-04-22T12:48:56.219Z,36.51
2023-04-22T12:49:56.502Z,36.80
2023-04-22T12:50:56.786Z,36.13
2023-04-22T12:51:57.060Z,36.74
2023-04-22T12:52:57.328Z,36.56
2023-04-22T12:53:57.627Z,37.54
2023-04-22T12:54:57.922Z,36.93
2023-04-22T12:55:58.201Z,36.22
2023-04-22T12:56:58.501Z,35.13